sensor_id;sensor_type;location;lat;lon;timestamp;P1;durP1;ratioP1;P2;durP2;ratioP2
14681;SDS011;7429;52.498;13.480;2022-09-17T00:00:50;6.30;;;4.87;;
14681;SDS011;7429;52.498;13.480;2022-09-17T00:03:54;11.30;;;5.80;;
14681;SDS011;7429;52.498;13.480;2022-09-17T00:07:00;11.80;;;5.27;;
14681;SDS011;7429;52.498;13.480;2022-09-17T00:10:04;11.07;;;6.33;;
14681;SDS011;7429;52.498;13.480;2022-09-17T00:13:10;8.57;;;5.10;;
14681;SDS011;7429;52.498;13.480;2022-09-17T00:16:20;10.83;;;6.10;;
14681;SDS011;7429;52.498;13.480;2022-09-17T00:19:27;12.43;;;5.00;;
14681;SDS011;7429;52.498;13.480;2022-09-17T00:22:30;17.53;;;6.47;;
14681;SDS011;7429;52.498;13.480;2022-09-17T00:25:33;9.10;;;6.67;;
14681;SDS011;7429;52.498;13.480;2022-09-17T00:28:40;13.13;;;5.00;;
14681;SDS011;7429;52.498;13.480;2022-09-17T00:31:45;8.63;;;6.30;;
14681;SDS011;7429;52.498;13.480;2022-09-17T00:34:48;9.30;;;6.37;;
14681;SDS011;7429;52.498;13.480;2022-09-17T00:37:52;13.90;;;7.17;;
14681;SDS011;7429;52.498;13.480;2022-09-17T00:40:55;7.77;;;6.70;;
14681;SDS011;7429;52.498;13.480;2022-09-17T00:44:00;9.77;;;6.10;;
14681;SDS011;7429;52.498;13.480;2022-09-17T00:47:45;13.97;;;5.83;;
14681;SDS011;7429;52.498;13.480;2022-09-17T00:50:53;8.90;;;6.13;;
14681;SDS011;7429;52.498;13.480;2022-09-17T00:53:59;8.50;;;6.67;;
14681;SDS011;7429;52.498;13.480;2022-09-17T00:57:05;15.90;;;5.37;;
14681;SDS011;7429;52.498;13.480;2022-09-17T01:00:10;10.47;;;6.20;;
14681;SDS011;7429;52.498;13.480;2022-09-17T01:03:16;11.53;;;6.73;;
14681;SDS011;7429;52.498;13.480;2022-09-17T01:06:21;12.03;;;5.87;;
14681;SDS011;7429;52.498;13.480;2022-09-17T01:09:35;12.10;;;6.43;;
14681;SDS011;7429;52.498;13.480;2022-09-17T01:12:56;11.90;;;6.17;;
14681;SDS011;7429;52.498;13.480;2022-09-17T01:16:13;11.67;;;7.47;;
14681;SDS011;7429;52.498;13.480;2022-09-17T01:23:17;10.20;;;5.70;;
14681;SDS011;7429;52.498;13.480;2022-09-17T01:26:49;18.03;;;6.50;;
14681;SDS011;7429;52.498;13.480;2022-09-17T01:30:34;7.30;;;6.03;;
14681;SDS011;7429;52.498;13.480;2022-09-17T01:33:58;12.53;;;5.97;;
14681;SDS011;7429;52.498;13.480;2022-09-17T01:37:08;10.07;;;5.67;;
14681;SDS011;7429;52.498;13.480;2022-09-17T01:40:17;11.50;;;6.30;;
14681;SDS011;7429;52.498;13.480;2022-09-17T01:43:28;12.97;;;6.83;;
14681;SDS011;7429;52.498;13.480;2022-09-17T01:46:37;16.93;;;8.43;;
14681;SDS011;7429;52.498;13.480;2022-09-17T01:49:45;13.43;;;6.80;;
14681;SDS011;7429;52.498;13.480;2022-09-17T01:52:49;17.77;;;6.40;;
14681;SDS011;7429;52.498;13.480;2022-09-17T01:55:54;13.00;;;7.07;;
14681;SDS011;7429;52.498;13.480;2022-09-17T01:59:03;16.33;;;6.30;;
14681;SDS011;7429;52.498;13.480;2022-09-17T02:02:14;8.63;;;7.73;;
14681;SDS011;7429;52.498;13.480;2022-09-17T02:05:23;14.40;;;6.83;;
14681;SDS011;7429;52.498;13.480;2022-09-17T02:08:33;14.10;;;9.20;;
14681;SDS011;7429;52.498;13.480;2022-09-17T02:11:41;12.10;;;7.70;;
14681;SDS011;7429;52.498;13.480;2022-09-17T02:14:50;15.57;;;8.43;;
14681;SDS011;7429;52.498;13.480;2022-09-17T02:17:57;9.60;;;6.30;;
14681;SDS011;7429;52.498;13.480;2022-09-17T02:21:10;13.80;;;6.47;;
14681;SDS011;7429;52.498;13.480;2022-09-17T02:24:19;12.97;;;6.43;;
14681;SDS011;7429;52.498;13.480;2022-09-17T02:27:28;11.20;;;6.53;;
14681;SDS011;7429;52.498;13.480;2022-09-17T02:30:43;18.47;;;6.77;;
14681;SDS011;7429;52.498;13.480;2022-09-17T02:33:49;15.60;;;7.07;;
14681;SDS011;7429;52.498;13.480;2022-09-17T02:36:54;13.10;;;6.83;;
14681;SDS011;7429;52.498;13.480;2022-09-17T02:39:58;11.97;;;7.33;;
14681;SDS011;7429;52.498;13.480;2022-09-17T02:43:06;8.53;;;6.67;;
14681;SDS011;7429;52.498;13.480;2022-09-17T02:46:26;9.70;;;6.17;;
14681;SDS011;7429;52.498;13.480;2022-09-17T02:49:52;8.07;;;6.23;;
14681;SDS011;7429;52.498;13.480;2022-09-17T02:53:18;9.40;;;8.17;;
14681;SDS011;7429;52.498;13.480;2022-09-17T02:56:39;20.70;;;8.37;;
14681;SDS011;7429;52.498;13.480;2022-09-17T02:59:51;20.10;;;7.63;;
14681;SDS011;7429;52.498;13.480;2022-09-17T03:03:04;19.67;;;7.70;;
14681;SDS011;7429;52.498;13.480;2022-09-17T03:06:15;9.80;;;7.87;;
14681;SDS011;7429;52.498;13.480;2022-09-17T03:09:19;16.90;;;9.13;;
14681;SDS011;7429;52.498;13.480;2022-09-17T03:12:22;14.17;;;8.03;;
14681;SDS011;7429;52.498;13.480;2022-09-17T03:15:26;18.43;;;8.47;;
14681;SDS011;7429;52.498;13.480;2022-09-17T03:18:29;15.83;;;8.40;;
14681;SDS011;7429;52.498;13.480;2022-09-17T03:21:33;17.07;;;8.80;;
14681;SDS011;7429;52.498;13.480;2022-09-17T03:24:36;11.20;;;7.93;;
14681;SDS011;7429;52.498;13.480;2022-09-17T03:27:39;18.87;;;8.33;;
14681;SDS011;7429;52.498;13.480;2022-09-17T03:30:43;18.27;;;8.13;;
14681;SDS011;7429;52.498;13.480;2022-09-17T03:33:46;15.90;;;6.37;;
14681;SDS011;7429;52.498;13.480;2022-09-17T03:36:51;9.90;;;6.53;;
14681;SDS011;7429;52.498;13.480;2022-09-17T03:39:54;9.70;;;6.63;;
14681;SDS011;7429;52.498;13.480;2022-09-17T03:42:57;20.00;;;6.37;;
14681;SDS011;7429;52.498;13.480;2022-09-17T03:46:00;10.20;;;6.73;;
14681;SDS011;7429;52.498;13.480;2022-09-17T03:49:04;13.37;;;6.50;;
14681;SDS011;7429;52.498;13.480;2022-09-17T03:52:08;14.97;;;8.57;;
14681;SDS011;7429;52.498;13.480;2022-09-17T03:55:11;13.43;;;6.27;;
14681;SDS011;7429;52.498;13.480;2022-09-17T03:58:14;13.77;;;7.33;;
14681;SDS011;7429;52.498;13.480;2022-09-17T04:01:17;10.53;;;5.80;;
14681;SDS011;7429;52.498;13.480;2022-09-17T04:04:21;13.47;;;6.47;;
14681;SDS011;7429;52.498;13.480;2022-09-17T04:07:25;13.73;;;6.50;;
14681;SDS011;7429;52.498;13.480;2022-09-17T04:10:28;19.90;;;6.17;;
14681;SDS011;7429;52.498;13.480;2022-09-17T04:13:31;13.73;;;5.67;;
14681;SDS011;7429;52.498;13.480;2022-09-17T04:16:34;16.03;;;5.23;;
14681;SDS011;7429;52.498;13.480;2022-09-17T04:19:38;14.20;;;6.13;;
14681;SDS011;7429;52.498;13.480;2022-09-17T04:22:42;15.47;;;6.10;;
14681;SDS011;7429;52.498;13.480;2022-09-17T04:25:45;12.90;;;5.73;;
14681;SDS011;7429;52.498;13.480;2022-09-17T04:28:49;20.27;;;6.07;;
14681;SDS011;7429;52.498;13.480;2022-09-17T04:31:52;15.93;;;6.93;;
14681;SDS011;7429;52.498;13.480;2022-09-17T04:34:55;13.63;;;5.57;;
14681;SDS011;7429;52.498;13.480;2022-09-17T04:37:59;13.17;;;5.13;;
14681;SDS011;7429;52.498;13.480;2022-09-17T04:41:04;12.47;;;6.70;;
14681;SDS011;7429;52.498;13.480;2022-09-17T04:44:08;16.43;;;5.97;;
14681;SDS011;7429;52.498;13.480;2022-09-17T04:47:11;10.87;;;5.83;;
14681;SDS011;7429;52.498;13.480;2022-09-17T04:50:14;14.93;;;5.47;;
14681;SDS011;7429;52.498;13.480;2022-09-17T04:53:19;12.23;;;6.80;;
14681;SDS011;7429;52.498;13.480;2022-09-17T04:56:22;11.27;;;5.73;;
14681;SDS011;7429;52.498;13.480;2022-09-17T04:59:25;10.67;;;4.80;;
14681;SDS011;7429;52.498;13.480;2022-09-17T05:02:28;14.40;;;5.43;;
14681;SDS011;7429;52.498;13.480;2022-09-17T05:05:31;18.60;;;5.77;;
14681;SDS011;7429;52.498;13.480;2022-09-17T05:08:35;11.53;;;5.47;;
14681;SDS011;7429;52.498;13.480;2022-09-17T05:11:38;14.57;;;6.23;;
14681;SDS011;7429;52.498;13.480;2022-09-17T05:14:41;12.77;;;4.53;;
14681;SDS011;7429;52.498;13.480;2022-09-17T05:17:44;11.83;;;4.80;;
14681;SDS011;7429;52.498;13.480;2022-09-17T05:20:48;13.50;;;5.13;;
14681;SDS011;7429;52.498;13.480;2022-09-17T05:23:52;8.50;;;4.30;;
14681;SDS011;7429;52.498;13.480;2022-09-17T05:26:55;10.33;;;4.90;;
14681;SDS011;7429;52.498;13.480;2022-09-17T05:29:58;9.83;;;5.10;;
14681;SDS011;7429;52.498;13.480;2022-09-17T05:33:02;12.30;;;5.60;;
14681;SDS011;7429;52.498;13.480;2022-09-17T05:36:07;14.20;;;5.67;;
14681;SDS011;7429;52.498;13.480;2022-09-17T05:39:11;12.23;;;4.13;;
14681;SDS011;7429;52.498;13.480;2022-09-17T05:42:14;9.77;;;4.63;;
14681;SDS011;7429;52.498;13.480;2022-09-17T05:45:17;14.40;;;5.50;;
14681;SDS011;7429;52.498;13.480;2022-09-17T05:48:20;10.13;;;4.77;;
14681;SDS011;7429;52.498;13.480;2022-09-17T05:51:24;14.03;;;4.70;;
14681;SDS011;7429;52.498;13.480;2022-09-17T05:54:28;11.93;;;4.50;;
14681;SDS011;7429;52.498;13.480;2022-09-17T05:57:31;10.53;;;4.80;;
14681;SDS011;7429;52.498;13.480;2022-09-17T06:00:34;12.87;;;5.93;;
14681;SDS011;7429;52.498;13.480;2022-09-17T06:03:37;10.70;;;5.30;;
14681;SDS011;7429;52.498;13.480;2022-09-17T06:06:40;12.30;;;4.57;;
14681;SDS011;7429;52.498;13.480;2022-09-17T06:09:45;14.03;;;5.03;;
14681;SDS011;7429;52.498;13.480;2022-09-17T06:12:48;10.90;;;4.57;;
14681;SDS011;7429;52.498;13.480;2022-09-17T06:15:57;14.20;;;5.33;;
14681;SDS011;7429;52.498;13.480;2022-09-17T06:19:01;19.03;;;6.47;;
14681;SDS011;7429;52.498;13.480;2022-09-17T06:22:05;13.57;;;6.37;;
14681;SDS011;7429;52.498;13.480;2022-09-17T06:25:09;16.40;;;5.90;;
14681;SDS011;7429;52.498;13.480;2022-09-17T06:28:13;16.53;;;5.90;;
14681;SDS011;7429;52.498;13.480;2022-09-17T06:31:16;14.40;;;6.40;;
14681;SDS011;7429;52.498;13.480;2022-09-17T06:34:20;20.70;;;7.80;;
14681;SDS011;7429;52.498;13.480;2022-09-17T06:37:26;17.07;;;5.83;;
14681;SDS011;7429;52.498;13.480;2022-09-17T06:40:30;16.17;;;7.07;;
14681;SDS011;7429;52.498;13.480;2022-09-17T06:43:35;22.83;;;7.73;;
14681;SDS011;7429;52.498;13.480;2022-09-17T06:46:37;22.83;;;6.93;;
14681;SDS011;7429;52.498;13.480;2022-09-17T06:49:41;22.00;;;7.17;;
14681;SDS011;7429;52.498;13.480;2022-09-17T06:52:46;25.43;;;7.53;;
14681;SDS011;7429;52.498;13.480;2022-09-17T06:55:51;27.63;;;7.70;;
14681;SDS011;7429;52.498;13.480;2022-09-17T06:59:05;20.40;;;6.80;;
14681;SDS011;7429;52.498;13.480;2022-09-17T07:02:08;24.90;;;6.97;;
14681;SDS011;7429;52.498;13.480;2022-09-17T07:05:11;25.53;;;9.27;;
14681;SDS011;7429;52.498;13.480;2022-09-17T07:08:15;25.47;;;7.37;;
14681;SDS011;7429;52.498;13.480;2022-09-17T07:11:19;20.23;;;6.30;;
14681;SDS011;7429;52.498;13.480;2022-09-17T07:14:23;18.60;;;6.80;;
14681;SDS011;7429;52.498;13.480;2022-09-17T07:17:27;21.83;;;6.23;;
14681;SDS011;7429;52.498;13.480;2022-09-17T07:20:30;17.40;;;6.53;;
14681;SDS011;7429;52.498;13.480;2022-09-17T07:23:34;19.87;;;6.37;;
14681;SDS011;7429;52.498;13.480;2022-09-17T07:26:39;19.47;;;6.70;;
14681;SDS011;7429;52.498;13.480;2022-09-17T07:29:43;19.07;;;6.17;;
14681;SDS011;7429;52.498;13.480;2022-09-17T07:32:46;19.07;;;6.13;;
14681;SDS011;7429;52.498;13.480;2022-09-17T07:35:52;19.90;;;6.53;;
14681;SDS011;7429;52.498;13.480;2022-09-17T07:38:56;24.77;;;6.80;;
14681;SDS011;7429;52.498;13.480;2022-09-17T07:42:00;22.27;;;6.27;;
14681;SDS011;7429;52.498;13.480;2022-09-17T07:45:05;14.47;;;5.03;;
14681;SDS011;7429;52.498;13.480;2022-09-17T07:48:10;19.77;;;5.67;;
14681;SDS011;7429;52.498;13.480;2022-09-17T07:51:14;22.13;;;6.10;;
14681;SDS011;7429;52.498;13.480;2022-09-17T07:54:18;24.00;;;5.97;;
14681;SDS011;7429;52.498;13.480;2022-09-17T07:57:22;12.70;;;6.30;;
14681;SDS011;7429;52.498;13.480;2022-09-17T08:00:26;14.13;;;5.07;;
14681;SDS011;7429;52.498;13.480;2022-09-17T08:03:28;23.53;;;6.33;;
14681;SDS011;7429;52.498;13.480;2022-09-17T08:06:34;20.20;;;6.00;;
14681;SDS011;7429;52.498;13.480;2022-09-17T08:09:40;21.90;;;6.10;;
14681;SDS011;7429;52.498;13.480;2022-09-17T08:12:45;20.67;;;9.13;;
14681;SDS011;7429;52.498;13.480;2022-09-17T08:15:48;16.90;;;4.93;;
14681;SDS011;7429;52.498;13.480;2022-09-17T08:18:52;20.63;;;5.90;;
14681;SDS011;7429;52.498;13.480;2022-09-17T08:21:58;17.97;;;6.57;;
14681;SDS011;7429;52.498;13.480;2022-09-17T08:25:01;16.43;;;6.30;;
14681;SDS011;7429;52.498;13.480;2022-09-17T08:28:06;14.47;;;5.53;;
14681;SDS011;7429;52.498;13.480;2022-09-17T08:31:09;23.43;;;5.80;;
14681;SDS011;7429;52.498;13.480;2022-09-17T08:34:13;16.83;;;5.17;;
14681;SDS011;7429;52.498;13.480;2022-09-17T08:37:17;14.37;;;5.73;;
14681;SDS011;7429;52.498;13.480;2022-09-17T08:40:20;17.60;;;5.13;;
14681;SDS011;7429;52.498;13.480;2022-09-17T08:43:26;13.87;;;7.23;;
14681;SDS011;7429;52.498;13.480;2022-09-17T08:46:33;17.33;;;6.03;;
14681;SDS011;7429;52.498;13.480;2022-09-17T08:49:45;14.07;;;7.43;;
14681;SDS011;7429;52.498;13.480;2022-09-17T08:53:01;10.90;;;5.47;;
14681;SDS011;7429;52.498;13.480;2022-09-17T08:56:23;14.33;;;4.40;;
14681;SDS011;7429;52.498;13.480;2022-09-17T08:59:29;13.67;;;5.10;;
14681;SDS011;7429;52.498;13.480;2022-09-17T09:02:42;11.43;;;5.10;;
14681;SDS011;7429;52.498;13.480;2022-09-17T09:06:03;13.47;;;4.87;;
14681;SDS011;7429;52.498;13.480;2022-09-17T09:09:12;12.40;;;4.22;;
14681;SDS011;7429;52.498;13.480;2022-09-17T09:12:21;19.63;;;6.43;;
14681;SDS011;7429;52.498;13.480;2022-09-17T09:15:34;9.90;;;5.10;;
14681;SDS011;7429;52.498;13.480;2022-09-17T09:18:39;9.60;;;3.80;;
14681;SDS011;7429;52.498;13.480;2022-09-17T09:21:44;8.27;;;4.15;;
14681;SDS011;7429;52.498;13.480;2022-09-17T09:25:02;13.83;;;6.17;;
14681;SDS011;7429;52.498;13.480;2022-09-17T09:28:31;12.77;;;4.93;;
14681;SDS011;7429;52.498;13.480;2022-09-17T09:35:17;9.40;;;5.60;;
14681;SDS011;7429;52.498;13.480;2022-09-17T09:38:25;14.32;;;4.95;;
14681;SDS011;7429;52.498;13.480;2022-09-17T09:41:35;11.30;;;4.05;;
14681;SDS011;7429;52.498;13.480;2022-09-17T09:44:45;12.63;;;4.80;;
14681;SDS011;7429;52.498;13.480;2022-09-17T09:47:52;14.27;;;4.72;;
14681;SDS011;7429;52.498;13.480;2022-09-17T09:51:07;16.88;;;5.18;;
14681;SDS011;7429;52.498;13.480;2022-09-17T09:54:23;13.80;;;4.40;;
14681;SDS011;7429;52.498;13.480;2022-09-17T09:57:43;15.85;;;5.85;;
14681;SDS011;7429;52.498;13.480;2022-09-17T10:00:49;13.45;;;4.40;;
14681;SDS011;7429;52.498;13.480;2022-09-17T10:03:54;11.37;;;4.50;;
14681;SDS011;7429;52.498;13.480;2022-09-17T10:07:00;11.90;;;5.00;;
14681;SDS011;7429;52.498;13.480;2022-09-17T10:10:08;15.07;;;7.93;;
14681;SDS011;7429;52.498;13.480;2022-09-17T10:13:12;10.97;;;5.33;;
14681;SDS011;7429;52.498;13.480;2022-09-17T10:16:18;12.43;;;4.70;;
14681;SDS011;7429;52.498;13.480;2022-09-17T10:19:26;8.93;;;4.03;;
14681;SDS011;7429;52.498;13.480;2022-09-17T10:22:29;11.50;;;5.13;;
14681;SDS011;7429;52.498;13.480;2022-09-17T10:25:34;14.48;;;5.05;;
14681;SDS011;7429;52.498;13.480;2022-09-17T10:28:45;13.43;;;4.28;;
14681;SDS011;7429;52.498;13.480;2022-09-17T10:31:52;10.15;;;3.75;;
14681;SDS011;7429;52.498;13.480;2022-09-17T10:34:59;10.98;;;3.45;;
14681;SDS011;7429;52.498;13.480;2022-09-17T10:38:24;13.02;;;4.60;;
14681;SDS011;7429;52.498;13.480;2022-09-17T10:41:30;11.77;;;3.75;;
14681;SDS011;7429;52.498;13.480;2022-09-17T10:44:33;11.27;;;4.85;;
14681;SDS011;7429;52.498;13.480;2022-09-17T10:47:39;12.00;;;4.40;;
14681;SDS011;7429;52.498;13.480;2022-09-17T10:50:47;14.90;;;4.80;;
14681;SDS011;7429;52.498;13.480;2022-09-17T10:53:58;9.20;;;4.27;;
14681;SDS011;7429;52.498;13.480;2022-09-17T10:57:33;14.93;;;4.57;;
14681;SDS011;7429;52.498;13.480;2022-09-17T11:00:59;7.85;;;4.60;;
14681;SDS011;7429;52.498;13.480;2022-09-17T11:04:15;12.98;;;4.45;;
14681;SDS011;7429;52.498;13.480;2022-09-17T11:07:32;12.30;;;7.82;;
14681;SDS011;7429;52.498;13.480;2022-09-17T11:10:48;16.98;;;5.03;;
14681;SDS011;7429;52.498;13.480;2022-09-17T11:14:01;14.13;;;5.40;;
14681;SDS011;7429;52.498;13.480;2022-09-17T11:17:20;10.23;;;5.25;;
14681;SDS011;7429;52.498;13.480;2022-09-17T11:20:55;11.32;;;4.82;;
14681;SDS011;7429;52.498;13.480;2022-09-17T11:24:18;10.40;;;4.38;;
14681;SDS011;7429;52.498;13.480;2022-09-17T11:27:54;9.20;;;3.75;;
14681;SDS011;7429;52.498;13.480;2022-09-17T11:31:11;9.25;;;3.15;;
14681;SDS011;7429;52.498;13.480;2022-09-17T11:34:29;9.52;;;3.70;;
14681;SDS011;7429;52.498;13.480;2022-09-17T11:37:37;9.18;;;3.05;;
14681;SDS011;7429;52.498;13.480;2022-09-17T11:40:51;8.25;;;3.30;;
14681;SDS011;7429;52.498;13.480;2022-09-17T11:44:04;12.65;;;4.88;;
14681;SDS011;7429;52.498;13.480;2022-09-17T11:47:14;6.95;;;3.63;;
14681;SDS011;7429;52.498;13.480;2022-09-17T11:50:22;9.65;;;3.47;;
14681;SDS011;7429;52.498;13.480;2022-09-17T11:53:31;8.13;;;3.67;;
14681;SDS011;7429;52.498;13.480;2022-09-17T11:56:43;7.03;;;3.25;;
14681;SDS011;7429;52.498;13.480;2022-09-17T11:59:50;12.93;;;4.55;;
14681;SDS011;7429;52.498;13.480;2022-09-17T12:02:58;4.30;;;2.95;;
14681;SDS011;7429;52.498;13.480;2022-09-17T12:06:08;7.10;;;2.70;;
14681;SDS011;7429;52.498;13.480;2022-09-17T12:09:16;9.65;;;3.40;;
14681;SDS011;7429;52.498;13.480;2022-09-17T12:12:35;9.38;;;2.53;;
14681;SDS011;7429;52.498;13.480;2022-09-17T12:15:51;4.00;;;2.22;;
14681;SDS011;7429;52.498;13.480;2022-09-17T12:19:08;8.27;;;2.80;;
14681;SDS011;7429;52.498;13.480;2022-09-17T12:22:20;6.88;;;2.72;;
14681;SDS011;7429;52.498;13.480;2022-09-17T12:25:27;6.68;;;2.92;;
14681;SDS011;7429;52.498;13.480;2022-09-17T12:28:38;6.13;;;2.90;;
14681;SDS011;7429;52.498;13.480;2022-09-17T12:31:51;5.25;;;2.55;;
14681;SDS011;7429;52.498;13.480;2022-09-17T12:35:02;7.72;;;2.88;;
14681;SDS011;7429;52.498;13.480;2022-09-17T12:38:23;10.77;;;3.10;;
14681;SDS011;7429;52.498;13.480;2022-09-17T12:41:55;8.52;;;2.70;;
14681;SDS011;7429;52.498;13.480;2022-09-17T12:45:15;7.25;;;2.80;;
14681;SDS011;7429;52.498;13.480;2022-09-17T12:48:45;3.47;;;2.50;;
14681;SDS011;7429;52.498;13.480;2022-09-17T12:52:01;4.90;;;2.55;;
14681;SDS011;7429;52.498;13.480;2022-09-17T12:55:20;8.13;;;3.10;;
14681;SDS011;7429;52.498;13.480;2022-09-17T12:59:04;6.68;;;2.60;;
14681;SDS011;7429;52.498;13.480;2022-09-17T13:02:14;3.45;;;2.30;;
14681;SDS011;7429;52.498;13.480;2022-09-17T13:12:52;7.80;;;3.08;;
14681;SDS011;7429;52.498;13.480;2022-09-17T13:16:07;5.07;;;2.60;;
14681;SDS011;7429;52.498;13.480;2022-09-17T13:19:25;7.47;;;2.75;;
14681;SDS011;7429;52.498;13.480;2022-09-17T13:22:42;3.80;;;2.55;;
14681;SDS011;7429;52.498;13.480;2022-09-17T13:25:48;6.03;;;3.05;;
14681;SDS011;7429;52.498;13.480;2022-09-17T13:28:53;3.72;;;2.50;;
14681;SDS011;7429;52.498;13.480;2022-09-17T13:31:56;4.20;;;2.53;;
14681;SDS011;7429;52.498;13.480;2022-09-17T13:35:04;8.32;;;2.90;;
14681;SDS011;7429;52.498;13.480;2022-09-17T13:38:52;3.90;;;2.88;;
14681;SDS011;7429;52.498;13.480;2022-09-17T13:41:58;5.50;;;2.70;;
14681;SDS011;7429;52.498;13.480;2022-09-17T13:45:09;7.00;;;3.33;;
14681;SDS011;7429;52.498;13.480;2022-09-17T13:48:18;5.65;;;4.65;;
14681;SDS011;7429;52.498;13.480;2022-09-17T13:51:43;5.50;;;2.45;;
14681;SDS011;7429;52.498;13.480;2022-09-17T13:54:52;8.73;;;2.47;;
14681;SDS011;7429;52.498;13.480;2022-09-17T13:57:56;5.07;;;2.90;;
14681;SDS011;7429;52.498;13.480;2022-09-17T14:01:00;6.28;;;2.88;;
14681;SDS011;7429;52.498;13.480;2022-09-17T14:04:04;8.93;;;3.05;;
14681;SDS011;7429;52.498;13.480;2022-09-17T14:10:39;5.90;;;2.92;;
14681;SDS011;7429;52.498;13.480;2022-09-17T14:13:44;10.10;;;3.28;;
14681;SDS011;7429;52.498;13.480;2022-09-17T14:16:47;5.55;;;3.15;;
14681;SDS011;7429;52.498;13.480;2022-09-17T14:19:51;9.23;;;3.35;;
14681;SDS011;7429;52.498;13.480;2022-09-17T14:22:57;9.18;;;2.88;;
14681;SDS011;7429;52.498;13.480;2022-09-17T14:26:03;10.82;;;3.00;;
14681;SDS011;7429;52.498;13.480;2022-09-17T14:29:12;9.18;;;2.95;;
14681;SDS011;7429;52.498;13.480;2022-09-17T14:32:30;6.53;;;2.95;;
14681;SDS011;7429;52.498;13.480;2022-09-17T14:35:41;10.80;;;3.30;;
14681;SDS011;7429;52.498;13.480;2022-09-17T14:38:48;10.82;;;2.60;;
14681;SDS011;7429;52.498;13.480;2022-09-17T14:41:54;7.28;;;2.45;;
14681;SDS011;7429;52.498;13.480;2022-09-17T14:44:58;4.20;;;2.90;;
14681;SDS011;7429;52.498;13.480;2022-09-17T14:48:26;6.45;;;3.03;;
14681;SDS011;7429;52.498;13.480;2022-09-17T14:51:31;7.00;;;2.83;;
14681;SDS011;7429;52.498;13.480;2022-09-17T14:54:35;6.00;;;2.65;;
14681;SDS011;7429;52.498;13.480;2022-09-17T14:57:38;7.15;;;2.90;;
14681;SDS011;7429;52.498;13.480;2022-09-17T15:00:42;5.63;;;2.60;;
14681;SDS011;7429;52.498;13.480;2022-09-17T15:04:08;5.63;;;3.10;;
14681;SDS011;7429;52.498;13.480;2022-09-17T15:07:12;7.63;;;2.85;;
14681;SDS011;7429;52.498;13.480;2022-09-17T15:10:17;3.90;;;2.25;;
14681;SDS011;7429;52.498;13.480;2022-09-17T15:13:24;2.85;;;2.20;;
14681;SDS011;7429;52.498;13.480;2022-09-17T15:16:29;2.58;;;1.73;;
14681;SDS011;7429;52.498;13.480;2022-09-17T15:19:34;2.30;;;2.10;;
14681;SDS011;7429;52.498;13.480;2022-09-17T15:22:40;2.80;;;2.58;;
14681;SDS011;7429;52.498;13.480;2022-09-17T15:25:47;2.38;;;2.17;;
14681;SDS011;7429;52.498;13.480;2022-09-17T15:28:55;5.20;;;2.85;;
14681;SDS011;7429;52.498;13.480;2022-09-17T15:32:01;5.35;;;1.65;;
14681;SDS011;7429;52.498;13.480;2022-09-17T15:35:17;2.93;;;2.07;;
14681;SDS011;7429;52.498;13.480;2022-09-17T15:38:29;3.20;;;2.10;;
14681;SDS011;7429;52.498;13.480;2022-09-17T15:41:34;2.38;;;2.20;;
14681;SDS011;7429;52.498;13.480;2022-09-17T15:44:39;2.30;;;2.10;;
14681;SDS011;7429;52.498;13.480;2022-09-17T15:47:50;7.50;;;1.87;;
14681;SDS011;7429;52.498;13.480;2022-09-17T15:50:56;3.10;;;2.23;;
14681;SDS011;7429;52.498;13.480;2022-09-17T15:54:02;2.85;;;2.25;;
14681;SDS011;7429;52.498;13.480;2022-09-17T15:57:12;2.57;;;2.30;;
14681;SDS011;7429;52.498;13.480;2022-09-17T16:00:17;4.47;;;2.80;;
14681;SDS011;7429;52.498;13.480;2022-09-17T16:07:23;2.40;;;2.20;;
14681;SDS011;7429;52.498;13.480;2022-09-17T16:10:30;5.40;;;2.70;;
14681;SDS011;7429;52.498;13.480;2022-09-17T16:13:36;3.53;;;3.00;;
14681;SDS011;7429;52.498;13.480;2022-09-17T16:16:39;6.10;;;2.80;;
14681;SDS011;7429;52.498;13.480;2022-09-17T16:19:42;4.27;;;3.37;;
14681;SDS011;7429;52.498;13.480;2022-09-17T16:22:45;4.53;;;3.00;;
14681;SDS011;7429;52.498;13.480;2022-09-17T16:25:49;4.23;;;2.40;;
14681;SDS011;7429;52.498;13.480;2022-09-17T16:28:55;4.40;;;2.40;;
14681;SDS011;7429;52.498;13.480;2022-09-17T16:32:03;4.33;;;2.40;;
14681;SDS011;7429;52.498;13.480;2022-09-17T16:35:07;3.57;;;2.10;;
14681;SDS011;7429;52.498;13.480;2022-09-17T16:38:17;6.00;;;2.30;;
14681;SDS011;7429;52.498;13.480;2022-09-17T16:41:21;3.10;;;2.90;;
14681;SDS011;7429;52.498;13.480;2022-09-17T16:44:25;3.67;;;2.50;;
14681;SDS011;7429;52.498;13.480;2022-09-17T16:47:32;2.93;;;2.30;;
14681;SDS011;7429;52.498;13.480;2022-09-17T16:50:38;3.90;;;2.53;;
14681;SDS011;7429;52.498;13.480;2022-09-17T16:53:42;3.03;;;2.77;;
14681;SDS011;7429;52.498;13.480;2022-09-17T16:56:45;4.23;;;2.80;;
14681;SDS011;7429;52.498;13.480;2022-09-17T16:59:50;3.33;;;2.00;;
14681;SDS011;7429;52.498;13.480;2022-09-17T17:02:53;4.07;;;2.60;;
14681;SDS011;7429;52.498;13.480;2022-09-17T17:05:58;3.57;;;2.10;;
14681;SDS011;7429;52.498;13.480;2022-09-17T17:09:01;2.87;;;2.53;;
14681;SDS011;7429;52.498;13.480;2022-09-17T17:12:04;3.90;;;2.90;;
14681;SDS011;7429;52.498;13.480;2022-09-17T17:15:12;4.50;;;2.00;;
14681;SDS011;7429;52.498;13.480;2022-09-17T17:18:18;3.17;;;2.90;;
14681;SDS011;7429;52.498;13.480;2022-09-17T17:21:21;5.37;;;2.77;;
14681;SDS011;7429;52.498;13.480;2022-09-17T17:24:24;3.00;;;2.70;;
14681;SDS011;7429;52.498;13.480;2022-09-17T17:27:27;6.97;;;3.40;;
14681;SDS011;7429;52.498;13.480;2022-09-17T17:30:32;3.00;;;2.63;;
14681;SDS011;7429;52.498;13.480;2022-09-17T17:33:35;2.97;;;2.67;;
14681;SDS011;7429;52.498;13.480;2022-09-17T17:36:38;3.80;;;2.77;;
14681;SDS011;7429;52.498;13.480;2022-09-17T17:39:42;4.17;;;3.27;;
14681;SDS011;7429;52.498;13.480;2022-09-17T17:42:49;5.57;;;3.33;;
14681;SDS011;7429;52.498;13.480;2022-09-17T17:45:54;9.83;;;3.53;;
14681;SDS011;7429;52.498;13.480;2022-09-17T17:48:57;3.87;;;2.10;;
14681;SDS011;7429;52.498;13.480;2022-09-17T17:52:00;4.10;;;2.77;;
14681;SDS011;7429;52.498;13.480;2022-09-17T17:55:04;5.47;;;3.20;;
14681;SDS011;7429;52.498;13.480;2022-09-17T17:58:08;4.00;;;2.60;;
14681;SDS011;7429;52.498;13.480;2022-09-17T18:01:13;4.07;;;2.90;;
14681;SDS011;7429;52.498;13.480;2022-09-17T18:04:18;3.57;;;3.13;;
14681;SDS011;7429;52.498;13.480;2022-09-17T18:07:21;4.17;;;2.27;;
14681;SDS011;7429;52.498;13.480;2022-09-17T18:10:24;3.17;;;2.90;;
14681;SDS011;7429;52.498;13.480;2022-09-17T18:13:28;3.30;;;2.33;;
14681;SDS011;7429;52.498;13.480;2022-09-17T18:16:32;4.53;;;3.40;;
14681;SDS011;7429;52.498;13.480;2022-09-17T18:19:35;6.37;;;2.57;;
14681;SDS011;7429;52.498;13.480;2022-09-17T18:22:38;5.30;;;3.03;;
14681;SDS011;7429;52.498;13.480;2022-09-17T18:25:41;6.77;;;3.40;;
14681;SDS011;7429;52.498;13.480;2022-09-17T18:28:53;3.40;;;2.90;;
14681;SDS011;7429;52.498;13.480;2022-09-17T18:31:58;5.67;;;3.67;;
14681;SDS011;7429;52.498;13.480;2022-09-17T18:35:03;5.67;;;3.50;;
14681;SDS011;7429;52.498;13.480;2022-09-17T18:38:17;3.97;;;3.43;;
14681;SDS011;7429;52.498;13.480;2022-09-17T18:41:25;4.90;;;3.40;;
14681;SDS011;7429;52.498;13.480;2022-09-17T18:44:42;2.93;;;2.50;;
14681;SDS011;7429;52.498;13.480;2022-09-17T18:47:50;2.97;;;2.67;;
14681;SDS011;7429;52.498;13.480;2022-09-17T18:50:54;5.43;;;3.47;;
14681;SDS011;7429;52.498;13.480;2022-09-17T18:53:58;2.80;;;2.47;;
14681;SDS011;7429;52.498;13.480;2022-09-17T18:57:01;6.37;;;3.60;;
14681;SDS011;7429;52.498;13.480;2022-09-17T19:00:09;3.87;;;2.87;;
14681;SDS011;7429;52.498;13.480;2022-09-17T19:03:19;4.43;;;4.10;;
14681;SDS011;7429;52.498;13.480;2022-09-17T19:06:29;3.90;;;3.10;;